sensor_id;sensor_type;location;lat;lon;timestamp;P1;durP1;ratioP1;P2;durP2;ratioP2
35376;SDS011;21480;51.642;4.834;2022-08-04T00:05:11;115.50;;;107.57;;
35376;SDS011;21480;51.642;4.834;2022-08-04T00:10:43;117.10;;;108.80;;
35376;SDS011;21480;51.642;4.834;2022-08-04T00:13:14;115.77;;;107.87;;
35376;SDS011;21480;51.642;4.834;2022-08-04T00:15:46;115.90;;;107.87;;
35376;SDS011;21480;51.642;4.834;2022-08-04T00:18:28;116.83;;;108.73;;
35376;SDS011;21480;51.642;4.834;2022-08-04T00:20:59;115.13;;;106.87;;
35376;SDS011;21480;51.642;4.834;2022-08-04T00:23:30;114.50;;;106.63;;
35376;SDS011;21480;51.642;4.834;2022-08-04T00:25:58;117.57;;;108.53;;
35376;SDS011;21480;51.642;4.834;2022-08-04T00:28:26;115.60;;;107.73;;
35376;SDS011;21480;51.642;4.834;2022-08-04T00:30:53;115.47;;;107.53;;
35376;SDS011;21480;51.642;4.834;2022-08-04T00:33:19;115.73;;;107.60;;
35376;SDS011;21480;51.642;4.834;2022-08-04T00:35:48;115.63;;;107.67;;
35376;SDS011;21480;51.642;4.834;2022-08-04T00:38:15;117.23;;;108.73;;
35376;SDS011;21480;51.642;4.834;2022-08-04T00:43:54;116.23;;;108.33;;
35376;SDS011;21480;51.642;4.834;2022-08-04T00:46:38;116.60;;;108.60;;
35376;SDS011;21480;51.642;4.834;2022-08-04T01:01:03;118.37;;;109.80;;
35376;SDS011;21480;51.642;4.834;2022-08-04T01:06:10;115.33;;;107.33;;
35376;SDS011;21480;51.642;4.834;2022-08-04T01:09:01;118.63;;;110.20;;
35376;SDS011;21480;51.642;4.834;2022-08-04T01:14:40;118.37;;;109.87;;
35376;SDS011;21480;51.642;4.834;2022-08-04T01:17:27;117.03;;;108.80;;
35376;SDS011;21480;51.642;4.834;2022-08-04T01:20:00;117.60;;;109.27;;
35376;SDS011;21480;51.642;4.834;2022-08-04T01:30:30;116.00;;;107.80;;
35376;SDS011;21480;51.642;4.834;2022-08-04T01:33:00;118.43;;;109.87;;
35376;SDS011;21480;51.642;4.834;2022-08-04T01:35:33;117.47;;;109.13;;
35376;SDS011;21480;51.642;4.834;2022-08-04T01:38:24;117.33;;;109.17;;
35376;SDS011;21480;51.642;4.834;2022-08-04T01:41:04;117.10;;;109.00;;
35376;SDS011;21480;51.642;4.834;2022-08-04T01:43:40;119.20;;;110.90;;
35376;SDS011;21480;51.642;4.834;2022-08-04T01:46:09;117.67;;;108.87;;
35376;SDS011;21480;51.642;4.834;2022-08-04T01:48:38;116.97;;;108.87;;
35376;SDS011;21480;51.642;4.834;2022-08-04T01:51:05;117.27;;;108.70;;
35376;SDS011;21480;51.642;4.834;2022-08-04T01:53:33;117.03;;;108.47;;
35376;SDS011;21480;51.642;4.834;2022-08-04T01:56:01;116.40;;;108.30;;
35376;SDS011;21480;51.642;4.834;2022-08-04T01:58:28;117.47;;;109.30;;
35376;SDS011;21480;51.642;4.834;2022-08-04T02:01:03;116.97;;;108.77;;
35376;SDS011;21480;51.642;4.834;2022-08-04T02:03:33;118.43;;;110.10;;
35376;SDS011;21480;51.642;4.834;2022-08-04T02:11:43;116.87;;;108.87;;
35376;SDS011;21480;51.642;4.834;2022-08-04T02:14:30;117.37;;;109.10;;
35376;SDS011;21480;51.642;4.834;2022-08-04T02:17:18;117.07;;;108.93;;
35376;SDS011;21480;51.642;4.834;2022-08-04T02:22:32;116.57;;;108.43;;
35376;SDS011;21480;51.642;4.834;2022-08-04T02:25:06;116.03;;;107.60;;
35376;SDS011;21480;51.642;4.834;2022-08-04T02:27:40;116.90;;;108.50;;
35376;SDS011;21480;51.642;4.834;2022-08-04T02:30:33;117.57;;;109.20;;
35376;SDS011;21480;51.642;4.834;2022-08-04T02:33:09;118.03;;;109.63;;
35376;SDS011;21480;51.642;4.834;2022-08-04T02:35:39;117.70;;;109.40;;
35376;SDS011;21480;51.642;4.834;2022-08-04T02:38:15;117.63;;;109.33;;
35376;SDS011;21480;51.642;4.834;2022-08-04T02:40:49;118.20;;;109.83;;
35376;SDS011;21480;51.642;4.834;2022-08-04T02:43:18;118.30;;;110.13;;
35376;SDS011;21480;51.642;4.834;2022-08-04T02:45:44;118.50;;;110.10;;
35376;SDS011;21480;51.642;4.834;2022-08-04T02:48:12;118.93;;;110.20;;
35376;SDS011;21480;51.642;4.834;2022-08-04T02:50:39;118.07;;;109.87;;
35376;SDS011;21480;51.642;4.834;2022-08-04T02:53:08;117.10;;;109.00;;
35376;SDS011;21480;51.642;4.834;2022-08-04T02:55:39;117.77;;;108.97;;
35376;SDS011;21480;51.642;4.834;2022-08-04T02:58:08;117.90;;;109.47;;
35376;SDS011;21480;51.642;4.834;2022-08-04T03:00:36;118.97;;;109.90;;
35376;SDS011;21480;51.642;4.834;2022-08-04T03:11:40;118.47;;;109.80;;
35376;SDS011;21480;51.642;4.834;2022-08-04T03:14:43;118.17;;;109.90;;
35376;SDS011;21480;51.642;4.834;2022-08-04T03:17:20;117.93;;;109.23;;
35376;SDS011;21480;51.642;4.834;2022-08-04T03:23:19;117.73;;;109.23;;
35376;SDS011;21480;51.642;4.834;2022-08-04T03:28:37;117.57;;;109.03;;
35376;SDS011;21480;51.642;4.834;2022-08-04T04:00:07;117.20;;;108.73;;
35376;SDS011;21480;51.642;4.834;2022-08-04T04:17:04;118.23;;;109.20;;
35376;SDS011;21480;51.642;4.834;2022-08-04T04:31:00;117.17;;;108.93;;
35376;SDS011;21480;51.642;4.834;2022-08-04T04:33:47;118.40;;;110.30;;
35376;SDS011;21480;51.642;4.834;2022-08-04T04:39:39;116.57;;;108.57;;
35376;SDS011;21480;51.642;4.834;2022-08-04T04:45:13;115.90;;;107.57;;
35376;SDS011;21480;51.642;4.834;2022-08-04T04:53:26;118.47;;;108.63;;
35376;SDS011;21480;51.642;4.834;2022-08-04T04:56:27;117.77;;;108.93;;
35376;SDS011;21480;51.642;4.834;2022-08-04T04:59:09;117.27;;;108.90;;
35376;SDS011;21480;51.642;4.834;2022-08-04T05:04:56;118.30;;;109.33;;
35376;SDS011;21480;51.642;4.834;2022-08-04T05:07:54;118.07;;;109.47;;
35376;SDS011;21480;51.642;4.834;2022-08-04T05:13:30;117.17;;;108.37;;
35376;SDS011;21480;51.642;4.834;2022-08-04T05:16:06;118.90;;;110.27;;
35376;SDS011;21480;51.642;4.834;2022-08-04T05:18:57;118.27;;;110.03;;
35376;SDS011;21480;51.642;4.834;2022-08-04T05:24:03;118.47;;;110.23;;
35376;SDS011;21480;51.642;4.834;2022-08-04T05:26:34;117.93;;;109.67;;
35376;SDS011;21480;51.642;4.834;2022-08-04T05:29:05;117.77;;;109.70;;
35376;SDS011;21480;51.642;4.834;2022-08-04T05:31:35;118.07;;;109.57;;
35376;SDS011;21480;51.642;4.834;2022-08-04T05:34:06;117.77;;;109.17;;
35376;SDS011;21480;51.642;4.834;2022-08-04T05:36:37;117.20;;;109.03;;
35376;SDS011;21480;51.642;4.834;2022-08-04T05:39:10;116.83;;;108.50;;
35376;SDS011;21480;51.642;4.834;2022-08-04T05:41:39;116.50;;;108.33;;
35376;SDS011;21480;51.642;4.834;2022-08-04T05:44:07;117.53;;;109.53;;
35376;SDS011;21480;51.642;4.834;2022-08-04T05:46:34;115.70;;;107.57;;
35376;SDS011;21480;51.642;4.834;2022-08-04T05:49:00;116.53;;;108.43;;
35376;SDS011;21480;51.642;4.834;2022-08-04T05:51:27;116.80;;;108.73;;
35376;SDS011;21480;51.642;4.834;2022-08-04T05:53:55;119.13;;;109.33;;
35376;SDS011;21480;51.642;4.834;2022-08-04T05:56:22;115.83;;;107.87;;
35376;SDS011;21480;51.642;4.834;2022-08-04T05:58:49;113.90;;;106.17;;
35376;SDS011;21480;51.642;4.834;2022-08-04T06:01:17;116.93;;;108.27;;
35376;SDS011;21480;51.642;4.834;2022-08-04T06:03:44;116.50;;;108.23;;
35376;SDS011;21480;51.642;4.834;2022-08-04T06:06:13;114.67;;;106.97;;
35376;SDS011;21480;51.642;4.834;2022-08-04T06:08:41;117.73;;;109.43;;
35376;SDS011;21480;51.642;4.834;2022-08-04T06:11:07;117.37;;;109.00;;
35376;SDS011;21480;51.642;4.834;2022-08-04T06:13:37;116.77;;;108.33;;
35376;SDS011;21480;51.642;4.834;2022-08-04T06:16:07;116.37;;;108.20;;
35376;SDS011;21480;51.642;4.834;2022-08-04T06:18:34;115.63;;;107.30;;
35376;SDS011;21480;51.642;4.834;2022-08-04T06:21:03;117.23;;;109.13;;
35376;SDS011;21480;51.642;4.834;2022-08-04T06:23:31;117.83;;;109.93;;
35376;SDS011;21480;51.642;4.834;2022-08-04T06:26:00;117.50;;;109.50;;
35376;SDS011;21480;51.642;4.834;2022-08-04T06:28:27;117.23;;;108.57;;
35376;SDS011;21480;51.642;4.834;2022-08-04T06:30:55;117.53;;;109.30;;
35376;SDS011;21480;51.642;4.834;2022-08-04T06:33:28;116.63;;;108.50;;
35376;SDS011;21480;51.642;4.834;2022-08-04T06:35:59;117.57;;;109.37;;
35376;SDS011;21480;51.642;4.834;2022-08-04T06:38:27;116.90;;;108.87;;
35376;SDS011;21480;51.642;4.834;2022-08-04T06:40:57;116.87;;;108.53;;
35376;SDS011;21480;51.642;4.834;2022-08-04T06:43:27;118.17;;;109.17;;
35376;SDS011;21480;51.642;4.834;2022-08-04T06:45:54;116.50;;;108.40;;
35376;SDS011;21480;51.642;4.834;2022-08-04T06:48:21;117.67;;;109.07;;
35376;SDS011;21480;51.642;4.834;2022-08-04T06:50:49;116.37;;;108.23;;
35376;SDS011;21480;51.642;4.834;2022-08-04T06:53:16;115.23;;;106.73;;
35376;SDS011;21480;51.642;4.834;2022-08-04T06:55:42;116.47;;;108.60;;
35376;SDS011;21480;51.642;4.834;2022-08-04T06:58:10;117.43;;;108.63;;
35376;SDS011;21480;51.642;4.834;2022-08-04T07:00:38;115.57;;;107.23;;
35376;SDS011;21480;51.642;4.834;2022-08-04T07:03:05;116.97;;;108.87;;
35376;SDS011;21480;51.642;4.834;2022-08-04T07:05:31;115.20;;;106.97;;
35376;SDS011;21480;51.642;4.834;2022-08-04T07:07:58;115.80;;;107.90;;
35376;SDS011;21480;51.642;4.834;2022-08-04T07:10:28;115.43;;;107.03;;
35376;SDS011;21480;51.642;4.834;2022-08-04T07:12:55;115.50;;;107.67;;
35376;SDS011;21480;51.642;4.834;2022-08-04T07:15:22;116.90;;;108.00;;
35376;SDS011;21480;51.642;4.834;2022-08-04T07:17:48;114.83;;;106.73;;
35376;SDS011;21480;51.642;4.834;2022-08-04T07:20:15;116.33;;;107.83;;
35376;SDS011;21480;51.642;4.834;2022-08-04T07:22:43;115.93;;;107.57;;
35376;SDS011;21480;51.642;4.834;2022-08-04T07:25:10;115.43;;;106.97;;
35376;SDS011;21480;51.642;4.834;2022-08-04T07:27:37;114.00;;;106.20;;
35376;SDS011;21480;51.642;4.834;2022-08-04T07:30:06;114.87;;;106.80;;
35376;SDS011;21480;51.642;4.834;2022-08-04T07:32:32;114.13;;;106.10;;
35376;SDS011;21480;51.642;4.834;2022-08-04T07:34:59;114.60;;;106.27;;
35376;SDS011;21480;51.642;4.834;2022-08-04T07:37:26;113.53;;;105.83;;
35376;SDS011;21480;51.642;4.834;2022-08-04T07:39:52;115.57;;;106.73;;
35376;SDS011;21480;51.642;4.834;2022-08-04T07:42:18;117.47;;;109.00;;
35376;SDS011;21480;51.642;4.834;2022-08-04T07:44:45;115.27;;;106.90;;
35376;SDS011;21480;51.642;4.834;2022-08-04T07:47:11;115.57;;;107.13;;
35376;SDS011;21480;51.642;4.834;2022-08-04T07:49:37;114.37;;;106.67;;
35376;SDS011;21480;51.642;4.834;2022-08-04T07:52:03;114.90;;;107.20;;
35376;SDS011;21480;51.642;4.834;2022-08-04T07:54:30;115.93;;;107.73;;
35376;SDS011;21480;51.642;4.834;2022-08-04T07:56:57;116.63;;;108.03;;
35376;SDS011;21480;51.642;4.834;2022-08-04T07:59:23;114.17;;;106.40;;
35376;SDS011;21480;51.642;4.834;2022-08-04T08:01:49;114.13;;;106.63;;
35376;SDS011;21480;51.642;4.834;2022-08-04T08:04:16;113.73;;;105.80;;
35376;SDS011;21480;51.642;4.834;2022-08-04T08:06:42;114.10;;;106.07;;
35376;SDS011;21480;51.642;4.834;2022-08-04T08:09:09;114.87;;;106.87;;
35376;SDS011;21480;51.642;4.834;2022-08-04T08:11:37;114.50;;;107.03;;
35376;SDS011;21480;51.642;4.834;2022-08-04T08:14:03;115.50;;;107.60;;
35376;SDS011;21480;51.642;4.834;2022-08-04T08:16:32;115.73;;;107.57;;
35376;SDS011;21480;51.642;4.834;2022-08-04T08:18:59;114.27;;;106.43;;
35376;SDS011;21480;51.642;4.834;2022-08-04T08:21:25;114.37;;;106.57;;
35376;SDS011;21480;51.642;4.834;2022-08-04T08:23:51;113.10;;;105.73;;
35376;SDS011;21480;51.642;4.834;2022-08-04T08:26:17;115.53;;;107.40;;
35376;SDS011;21480;51.642;4.834;2022-08-04T08:28:45;113.77;;;106.17;;
35376;SDS011;21480;51.642;4.834;2022-08-04T08:31:11;115.13;;;107.00;;
35376;SDS011;21480;51.642;4.834;2022-08-04T08:33:37;113.83;;;106.07;;
35376;SDS011;21480;51.642;4.834;2022-08-04T08:36:08;115.47;;;107.50;;
35376;SDS011;21480;51.642;4.834;2022-08-04T08:44:04;115.43;;;107.33;;
35376;SDS011;21480;51.642;4.834;2022-08-04T08:46:55;113.15;;;105.18;;
35376;SDS011;21480;51.642;4.834;2022-08-04T08:55:17;112.53;;;105.23;;
35376;SDS011;21480;51.642;4.834;2022-08-04T09:12:11;110.47;;;103.30;;
35376;SDS011;21480;51.642;4.834;2022-08-04T09:26:11;110.82;;;103.63;;
35376;SDS011;21480;51.642;4.834;2022-08-04T09:28:51;112.85;;;105.60;;
35376;SDS011;21480;51.642;4.834;2022-08-04T09:31:22;112.45;;;105.40;;
35376;SDS011;21480;51.642;4.834;2022-08-04T09:34:07;111.45;;;104.18;;
35376;SDS011;21480;51.642;4.834;2022-08-04T09:36:49;111.00;;;103.90;;
35376;SDS011;21480;51.642;4.834;2022-08-04T09:39:36;110.68;;;103.53;;
35376;SDS011;21480;51.642;4.834;2022-08-04T09:42:17;111.80;;;104.38;;
35376;SDS011;21480;51.642;4.834;2022-08-04T09:44:59;112.45;;;104.85;;
35376;SDS011;21480;51.642;4.834;2022-08-04T09:47:36;112.40;;;104.95;;
35376;SDS011;21480;51.642;4.834;2022-08-04T09:50:16;111.57;;;104.23;;
35376;SDS011;21480;51.642;4.834;2022-08-04T09:53:12;113.37;;;105.63;;
35376;SDS011;21480;51.642;4.834;2022-08-04T10:01:20;111.80;;;104.67;;
35376;SDS011;21480;51.642;4.834;2022-08-04T10:03:50;115.23;;;107.57;;
35376;SDS011;21480;51.642;4.834;2022-08-04T10:22:38;113.70;;;105.80;;
35376;SDS011;21480;51.642;4.834;2022-08-04T10:27:59;114.97;;;106.70;;
35376;SDS011;21480;51.642;4.834;2022-08-04T10:30:30;115.87;;;107.73;;
35376;SDS011;21480;51.642;4.834;2022-08-04T10:36:07;114.10;;;106.30;;
35376;SDS011;21480;51.642;4.834;2022-08-04T10:38:36;117.17;;;108.80;;
35376;SDS011;21480;51.642;4.834;2022-08-04T10:43:57;113.97;;;106.43;;
35376;SDS011;21480;51.642;4.834;2022-08-04T10:46:36;115.87;;;108.10;;
35376;SDS011;21480;51.642;4.834;2022-08-04T10:51:56;113.37;;;105.73;;
35376;SDS011;21480;51.642;4.834;2022-08-04T10:54:31;115.47;;;107.70;;
35376;SDS011;21480;51.642;4.834;2022-08-04T10:57:18;113.60;;;105.90;;
35376;SDS011;21480;51.642;4.834;2022-08-04T11:07:31;112.90;;;105.43;;
35376;SDS011;21480;51.642;4.834;2022-08-04T11:10:00;112.10;;;104.80;;
35376;SDS011;21480;51.642;4.834;2022-08-04T11:12:26;111.23;;;104.03;;
35376;SDS011;21480;51.642;4.834;2022-08-04T11:15:17;111.60;;;104.27;;
35376;SDS011;21480;51.642;4.834;2022-08-04T11:17:46;112.93;;;105.60;;
35376;SDS011;21480;51.642;4.834;2022-08-04T11:31:07;112.00;;;104.83;;
35376;SDS011;21480;51.642;4.834;2022-08-04T11:39:42;110.33;;;103.43;;
35376;SDS011;21480;51.642;4.834;2022-08-04T11:42:25;110.70;;;103.67;;
35376;SDS011;21480;51.642;4.834;2022-08-04T11:47:28;109.70;;;102.70;;
35376;SDS011;21480;51.642;4.834;2022-08-04T11:53:26;109.88;;;102.88;;
35376;SDS011;21480;51.642;4.834;2022-08-04T11:55:57;109.95;;;102.78;;
35376;SDS011;21480;51.642;4.834;2022-08-04T11:58:25;111.78;;;104.32;;
35376;SDS011;21480;51.642;4.834;2022-08-04T12:01:02;109.88;;;103.07;;
35376;SDS011;21480;51.642;4.834;2022-08-04T12:03:51;109.45;;;102.45;;
35376;SDS011;21480;51.642;4.834;2022-08-04T12:06:41;110.05;;;102.88;;
35376;SDS011;21480;51.642;4.834;2022-08-04T12:11:53;111.93;;;104.72;;
35376;SDS011;21480;51.642;4.834;2022-08-04T12:14:42;111.75;;;104.72;;
35376;SDS011;21480;51.642;4.834;2022-08-04T12:17:15;110.28;;;103.28;;
35376;SDS011;21480;51.642;4.834;2022-08-04T12:19:54;111.10;;;104.20;;
35376;SDS011;21480;51.642;4.834;2022-08-04T12:22:28;111.50;;;104.38;;
35376;SDS011;21480;51.642;4.834;2022-08-04T12:30:51;112.20;;;105.28;;
35376;SDS011;21480;51.642;4.834;2022-08-04T12:33:26;111.30;;;104.43;;
35376;SDS011;21480;51.642;4.834;2022-08-04T12:35:57;110.93;;;103.90;;
35376;SDS011;21480;51.642;4.834;2022-08-04T12:38:33;110.93;;;103.82;;
35376;SDS011;21480;51.642;4.834;2022-08-04T12:40:59;110.28;;;103.22;;
35376;SDS011;21480;51.642;4.834;2022-08-04T12:43:38;110.07;;;103.18;;
35376;SDS011;21480;51.642;4.834;2022-08-04T12:46:08;111.13;;;103.93;;
35376;SDS011;21480;51.642;4.834;2022-08-04T12:48:35;108.82;;;102.22;;
35376;SDS011;21480;51.642;4.834;2022-08-04T12:51:02;109.22;;;102.47;;
35376;SDS011;21480;51.642;4.834;2022-08-04T12:53:35;109.20;;;101.22;;
35376;SDS011;21480;51.642;4.834;2022-08-04T12:56:03;108.30;;;101.65;;
35376;SDS011;21480;51.642;4.834;2022-08-04T12:58:31;109.38;;;102.32;;
35376;SDS011;21480;51.642;4.834;2022-08-04T13:01:02;108.70;;;101.95;;
35376;SDS011;21480;51.642;4.834;2022-08-04T13:03:37;109.00;;;102.38;;
35376;SDS011;21480;51.642;4.834;2022-08-04T13:06:09;107.72;;;101.00;;
35376;SDS011;21480;51.642;4.834;2022-08-04T13:08:38;104.82;;;98.65;;
35376;SDS011;21480;51.642;4.834;2022-08-04T13:11:05;105.40;;;98.95;;
35376;SDS011;21480;51.642;4.834;2022-08-04T13:13:34;105.95;;;99.70;;
35376;SDS011;21480;51.642;4.834;2022-08-04T13:16:03;109.15;;;102.63;;
35376;SDS011;21480;51.642;4.834;2022-08-04T13:18:40;107.75;;;101.03;;
35376;SDS011;21480;51.642;4.834;2022-08-04T13:23:42;107.72;;;101.30;;
35376;SDS011;21480;51.642;4.834;2022-08-04T13:26:11;106.85;;;100.40;;
35376;SDS011;21480;51.642;4.834;2022-08-04T13:28:39;108.80;;;101.88;;
35376;SDS011;21480;51.642;4.834;2022-08-04T13:31:08;107.78;;;101.47;;
35376;SDS011;21480;51.642;4.834;2022-08-04T13:33:39;108.30;;;101.70;;
35376;SDS011;21480;51.642;4.834;2022-08-04T13:36:07;107.88;;;101.22;;
35376;SDS011;21480;51.642;4.834;2022-08-04T13:38:35;106.88;;;100.57;;
35376;SDS011;21480;51.642;4.834;2022-08-04T13:41:05;107.72;;;101.22;;
35376;SDS011;21480;51.642;4.834;2022-08-04T13:43:44;104.35;;;97.85;;
35376;SDS011;21480;51.642;4.834;2022-08-04T13:46:15;104.97;;;98.57;;
35376;SDS011;21480;51.642;4.834;2022-08-04T13:48:44;107.57;;;101.15;;
35376;SDS011;21480;51.642;4.834;2022-08-04T13:51:14;108.63;;;101.50;;
35376;SDS011;21480;51.642;4.834;2022-08-04T13:53:42;108.60;;;101.45;;
35376;SDS011;21480;51.642;4.834;2022-08-04T13:56:08;104.38;;;98.13;;
35376;SDS011;21480;51.642;4.834;2022-08-04T13:58:42;109.00;;;102.18;;
35376;SDS011;21480;51.642;4.834;2022-08-04T14:01:12;107.28;;;100.53;;
35376;SDS011;21480;51.642;4.834;2022-08-04T14:03:43;108.68;;;102.00;;
35376;SDS011;21480;51.642;4.834;2022-08-04T14:06:17;107.10;;;100.75;;
35376;SDS011;21480;51.642;4.834;2022-08-04T14:11:44;106.30;;;99.60;;
35376;SDS011;21480;51.642;4.834;2022-08-04T14:19:22;104.07;;;97.85;;
35376;SDS011;21480;51.642;4.834;2022-08-04T14:21:48;107.95;;;101.30;;
35376;SDS011;21480;51.642;4.834;2022-08-04T14:24:24;105.40;;;99.30;;
35376;SDS011;21480;51.642;4.834;2022-08-04T14:26:52;104.57;;;98.38;;
35376;SDS011;21480;51.642;4.834;2022-08-04T14:29:23;106.05;;;99.40;;
35376;SDS011;21480;51.642;4.834;2022-08-04T14:31:49;105.97;;;99.30;;
35376;SDS011;21480;51.642;4.834;2022-08-04T14:34:27;103.63;;;97.32;;
35376;SDS011;21480;51.642;4.834;2022-08-04T14:36:54;103.63;;;97.53;;
35376;SDS011;21480;51.642;4.834;2022-08-04T14:39:39;104.22;;;97.80;;
35376;SDS011;21480;51.642;4.834;2022-08-04T14:42:12;105.03;;;98.72;;
35376;SDS011;21480;51.642;4.834;2022-08-04T14:45:12;103.28;;;96.43;;
35376;SDS011;21480;51.642;4.834;2022-08-04T14:47:41;104.00;;;97.90;;
35376;SDS011;21480;51.642;4.834;2022-08-04T14:50:12;104.40;;;97.90;;
35376;SDS011;21480;51.642;4.834;2022-08-04T14:52:39;102.75;;;96.47;;
35376;SDS011;21480;51.642;4.834;2022-08-04T14:55:21;102.50;;;96.40;;
35376;SDS011;21480;51.642;4.834;2022-08-04T14:57:49;107.20;;;100.88;;
35376;SDS011;21480;51.642;4.834;2022-08-04T15:00:24;106.60;;;100.07;;
35376;SDS011;21480;51.642;4.834;2022-08-04T15:02:51;107.50;;;101.00;;
35376;SDS011;21480;51.642;4.834;2022-08-04T15:05:19;107.80;;;101.40;;
35376;SDS011;21480;51.642;4.834;2022-08-04T15:07:46;105.55;;;99.10;;
35376;SDS011;21480;51.642;4.834;2022-08-04T15:10:12;105.68;;;99.20;;
35376;SDS011;21480;51.642;4.834;2022-08-04T15:12:37;105.45;;;98.85;;
35376;SDS011;21480;51.642;4.834;2022-08-04T15:15:03;105.55;;;99.13;;
35376;SDS011;21480;51.642;4.834;2022-08-04T15:17:30;105.68;;;99.20;;
35376;SDS011;21480;51.642;4.834;2022-08-04T15:19:56;106.63;;;100.18;;
35376;SDS011;21480;51.642;4.834;2022-08-04T15:22:22;104.38;;;98.03;;
35376;SDS011;21480;51.642;4.834;2022-08-04T15:24:48;105.07;;;98.68;;
35376;SDS011;21480;51.642;4.834;2022-08-04T15:27:14;104.25;;;98.25;;
35376;SDS011;21480;51.642;4.834;2022-08-04T15:29:43;104.65;;;98.35;;
35376;SDS011;21480;51.642;4.834;2022-08-04T15:32:12;104.57;;;98.30;;
35376;SDS011;21480;51.642;4.834;2022-08-04T15:34:47;106.75;;;100.18;;
35376;SDS011;21480;51.642;4.834;2022-08-04T15:37:15;108.43;;;101.97;;
35376;SDS011;21480;51.642;4.834;2022-08-04T15:45:22;105.78;;;99.38;;
35376;SDS011;21480;51.642;4.834;2022-08-04T15:50:27;107.13;;;100.35;;
35376;SDS011;21480;51.642;4.834;2022-08-04T15:53:03;107.68;;;101.00;;
35376;SDS011;21480;51.642;4.834;2022-08-04T15:58:06;104.45;;;98.32;;
35376;SDS011;21480;51.642;4.834;2022-08-04T16:16:27;105.70;;;99.40;;
35376;SDS011;21480;51.642;4.834;2022-08-04T16:18:55;107.63;;;100.68;;
35376;SDS011;21480;51.642;4.834;2022-08-04T16:21:51;106.50;;;99.93;;
35376;SDS011;21480;51.642;4.834;2022-08-04T16:27:09;107.25;;;100.78;;
35376;SDS011;21480;51.642;4.834;2022-08-04T16:35:03;108.55;;;101.93;;
35376;SDS011;21480;51.642;4.834;2022-08-04T16:37:37;109.88;;;103.32;;
35376;SDS011;21480;51.642;4.834;2022-08-04T16:40:29;110.00;;;103.15;;
35376;SDS011;21480;51.642;4.834;2022-08-04T16:43:06;110.25;;;103.55;;
35376;SDS011;21480;51.642;4.834;2022-08-04T16:48:09;107.80;;;101.13;;
35376;SDS011;21480;51.642;4.834;2022-08-04T16:53:14;109.07;;;102.53;;
35376;SDS011;21480;51.642;4.834;2022-08-04T16:55:50;109.63;;;102.70;;
35376;SDS011;21480;51.642;4.834;2022-08-04T16:58:23;109.40;;;102.50;;
35376;SDS011;21480;51.642;4.834;2022-08-04T17:00:50;110.13;;;103.30;;
35376;SDS011;21480;51.642;4.834;2022-08-04T17:03:16;109.30;;;102.55;;
35376;SDS011;21480;51.642;4.834;2022-08-04T17:05:42;110.85;;;103.68;;
35376;SDS011;21480;51.642;4.834;2022-08-04T17:08:09;110.82;;;103.53;;
35376;SDS011;21480;51.642;4.834;2022-08-04T17:13:20;112.82;;;105.55;;
35376;SDS011;21480;51.642;4.834;2022-08-04T17:15:55;111.63;;;104.53;;
35376;SDS011;21480;51.642;4.834;2022-08-04T17:18:27;110.80;;;103.72;;
35376;SDS011;21480;51.642;4.834;2022-08-04T17:20:55;109.88;;;103.22;;
35376;SDS011;21480;51.642;4.834;2022-08-04T17:25:58;110.30;;;103.25;;
35376;SDS011;21480;51.642;4.834;2022-08-04T17:28:29;110.95;;;104.18;;
35376;SDS011;21480;51.642;4.834;2022-08-04T17:30:55;110.65;;;103.85;;
35376;SDS011;21480;51.642;4.834;2022-08-04T17:33:23;112.32;;;105.28;;
35376;SDS011;21480;51.642;4.834;2022-08-04T17:35:49;109.25;;;102.55;;
35376;SDS011;21480;51.642;4.834;2022-08-04T17:38:16;109.60;;;102.90;;
35376;SDS011;21480;51.642;4.834;2022-08-04T17:41:01;110.20;;;103.45;;
35376;SDS011;21480;51.642;4.834;2022-08-04T17:43:47;111.85;;;104.50;;
35376;SDS011;21480;51.642;4.834;2022-08-04T17:51:29;112.25;;;105.25;;
35376;SDS011;21480;51.642;4.834;2022-08-04T17:54:11;113.20;;;106.10;;
35376;SDS011;21480;51.642;4.834;2022-08-04T17:56:46;112.30;;;105.15;;
35376;SDS011;21480;51.642;4.834;2022-08-04T18:02:00;112.07;;;104.97;;
35376;SDS011;21480;51.642;4.834;2022-08-04T18:06:58;111.87;;;104.83;;
35376;SDS011;21480;51.642;4.834;2022-08-04T18:14:52;112.60;;;104.63;;
35376;SDS011;21480;51.642;4.834;2022-08-04T18:19:58;113.37;;;105.87;;
35376;SDS011;21480;51.642;4.834;2022-08-04T18:22:24;112.10;;;104.67;;
35376;SDS011;21480;51.642;4.834;2022-08-04T18:24:50;113.13;;;105.60;;
35376;SDS011;21480;51.642;4.834;2022-08-04T18:27:17;113.53;;;105.87;;
35376;SDS011;21480;51.642;4.834;2022-08-04T18:29:43;111.47;;;104.10;;
35376;SDS011;21480;51.642;4.834;2022-08-04T18:32:09;113.37;;;105.90;;
35376;SDS011;21480;51.642;4.834;2022-08-04T18:34:35;112.23;;;104.70;;
35376;SDS011;21480;51.642;4.834;2022-08-04T18:37:01;114.60;;;107.20;;
35376;SDS011;21480;51.642;4.834;2022-08-04T18:39:27;113.93;;;106.27;;
35376;SDS011;21480;51.642;4.834;2022-08-04T18:41:54;113.60;;;106.10;;
35376;SDS011;21480;51.642;4.834;2022-08-04T18:44:21;113.87;;;106.37;;
35376;SDS011;21480;51.642;4.834;2022-08-04T18:46:47;114.30;;;106.50;;
35376;SDS011;21480;51.642;4.834;2022-08-04T18:49:13;115.97;;;107.97;;
35376;SDS011;21480;51.642;4.834;2022-08-04T18:51:39;113.50;;;105.70;;
35376;SDS011;21480;51.642;4.834;2022-08-04T18:54:05;114.77;;;107.07;;
35376;SDS011;21480;51.642;4.834;2022-08-04T18:56:31;113.30;;;105.87;;
35376;SDS011;21480;51.642;4.834;2022-08-04T18:59:02;113.17;;;105.63;;
35376;SDS011;21480;51.642;4.834;2022-08-04T19:01:29;114.33;;;106.87;;
35376;SDS011;21480;51.642;4.834;2022-08-04T19:03:58;113.90;;;106.47;;
35376;SDS011;21480;51.642;4.834;2022-08-04T19:06:24;114.67;;;106.73;;
35376;SDS011;21480;51.642;4.834;2022-08-04T19:08:49;114.23;;;106.67;;
35376;SDS011;21480;51.642;4.834;2022-08-04T19:11:15;115.83;;;108.13;;
35376;SDS011;21480;51.642;4.834;2022-08-04T19:13:40;114.63;;;106.90;;
35376;SDS011;21480;51.642;4.834;2022-08-04T19:16:06;113.07;;;105.67;;
35376;SDS011;21480;51.642;4.834;2022-08-04T19:18:33;113.93;;;106.23;;
35376;SDS011;21480;51.642;4.834;2022-08-04T19:20:59;114.80;;;107.13;;
35376;SDS011;21480;51.642;4.834;2022-08-04T19:23:25;112.83;;;105.40;;
35376;SDS011;21480;51.642;4.834;2022-08-04T19:25:51;114.10;;;106.60;;
35376;SDS011;21480;51.642;4.834;2022-08-04T19:28:17;115.20;;;107.20;;
35376;SDS011;21480;51.642;4.834;2022-08-04T19:30:43;114.60;;;107.00;;
35376;SDS011;21480;51.642;4.834;2022-08-04T19:33:09;113.23;;;105.57;;
35376;SDS011;21480;51.642;4.834;2022-08-04T19:35:36;114.00;;;106.27;;
35376;SDS011;21480;51.642;4.834;2022-08-04T19:38:06;113.83;;;106.37;;
35376;SDS011;21480;51.642;4.834;2022-08-04T19:40:33;114.07;;;106.37;;